createdAt,value
2022-11-14T00:00:50.473Z,7.65
2022-11-14T00:05:51.721Z,8.73
2022-11-14T00:10:53.095Z,8.52
2022-11-14T00:15:54.408Z,8.35
2022-11-14T00:20:55.703Z,8.02
2022-11-14T00:25:57.475Z,8.25
2022-11-14T00:30:58.702Z,9.10
2022-11-14T00:35:59.954Z,8.55
2022-11-14T00:41:01.230Z,8.48
2022-11-14T00:46:02.540Z,8.50
2022-11-14T00:51:03.937Z,7.93
2022-11-14T00:56:06.420Z,7.18
2022-11-14T01:01:07.892Z,7.38
2022-11-14T01:06:11.318Z,7.43
2022-11-14T01:11:21.851Z,6.80
2022-11-14T01:16:23.239Z,8.05
2022-11-14T01:21:24.675Z,8.10
2022-11-14T01:26:26.057Z,7.90
2022-11-14T01:31:27.375Z,7.55
2022-11-14T01:36:28.619Z,7.13
2022-11-14T01:41:29.895Z,7.63
2022-11-14T01:46:38.445Z,7.72
2022-11-14T01:51:44.349Z,8.13
2022-11-14T01:56:57.281Z,8.07
2022-11-14T02:02:03.849Z,7.60
2022-11-14T02:07:06.921Z,7.47
2022-11-14T02:12:12.282Z,8.10
2022-11-14T02:17:28.995Z,8.30
2022-11-14T02:22:31.549Z,8.35
2022-11-14T02:27:34.728Z,7.93
2022-11-14T02:33:10.030Z,7.97
2022-11-14T02:37:57.573Z,8.02
2022-11-14T02:42:59.182Z,8.23
2022-11-14T02:48:00.502Z,8.57
2022-11-14T02:53:01.752Z,8.75
2022-11-14T02:58:03.041Z,9.07
2022-11-14T03:03:04.416Z,8.82
2022-11-14T03:08:05.829Z,9.27
2022-11-14T03:13:07.249Z,8.50
2022-11-14T03:18:08.728Z,8.43
2022-11-14T03:23:10.600Z,8.57
2022-11-14T03:28:12.193Z,8.20
2022-11-14T03:33:13.472Z,8.50
2022-11-14T03:38:15.097Z,9.00
2022-11-14T03:43:17.692Z,9.10
2022-11-14T03:48:19.084Z,9.55
2022-11-14T03:53:20.662Z,8.60
2022-11-14T03:58:22.122Z,8.63
2022-11-14T04:03:24.851Z,8.65
2022-11-14T04:08:26.152Z,8.95
2022-11-14T04:13:27.596Z,8.73
2022-11-14T04:18:29.253Z,8.75
2022-11-14T04:23:30.731Z,7.97
2022-11-14T04:28:32.487Z,8.00
2022-11-14T04:33:34.018Z,9.00
2022-11-14T04:38:35.654Z,8.35
2022-11-14T04:43:37.224Z,8.40
2022-11-14T04:48:38.556Z,8.95
2022-11-14T04:53:39.823Z,9.45
2022-11-14T04:58:41.119Z,9.85
2022-11-14T05:03:42.713Z,8.45
2022-11-14T05:08:44.048Z,8.60
2022-11-14T05:13:46.161Z,10.38
2022-11-14T05:18:47.704Z,9.95
2022-11-14T05:23:48.985Z,10.32
2022-11-14T05:28:50.446Z,10.15
2022-11-14T05:33:52.423Z,9.73
2022-11-14T05:38:54.357Z,10.65
2022-11-14T05:43:55.749Z,10.68
2022-11-14T05:48:56.983Z,10.15
2022-11-14T05:53:58.294Z,10.73
2022-11-14T05:58:59.569Z,12.10
2022-11-14T06:04:00.991Z,13.18
2022-11-14T06:09:02.515Z,12.85
2022-11-14T06:14:06.952Z,13.93
2022-11-14T06:19:10.995Z,13.15
2022-11-14T06:24:12.293Z,15.20
2022-11-14T06:29:13.686Z,15.48
2022-11-14T06:34:15.078Z,15.82
2022-11-14T06:39:16.340Z,15.75
2022-11-14T06:44:17.876Z,16.45
2022-11-14T06:49:19.192Z,17.25
2022-11-14T06:54:20.487Z,16.40
2022-11-14T06:59:21.882Z,17.85
2022-11-14T07:04:23.177Z,16.48
2022-11-14T07:09:24.547Z,16.65
2022-11-14T07:14:25.805Z,17.08
2022-11-14T07:19:27.133Z,16.38
2022-11-14T07:24:28.401Z,16.63
2022-11-14T07:29:29.640Z,16.58
2022-11-14T07:34:30.974Z,16.85
2022-11-14T07:39:32.671Z,16.33
2022-11-14T07:44:34.030Z,16.67
2022-11-14T07:49:35.354Z,15.95
2022-11-14T07:54:36.617Z,16.75
2022-11-14T07:59:37.882Z,17.98
2022-11-14T08:04:39.110Z,16.85
2022-11-14T08:09:40.413Z,16.55
2022-11-14T08:14:41.712Z,16.13
2022-11-14T08:19:42.977Z,15.95
2022-11-14T08:24:44.237Z,15.65
2022-11-14T08:29:45.523Z,16.13
2022-11-14T08:34:46.852Z,16.45
2022-11-14T08:39:48.132Z,16.25
2022-11-14T08:44:51.996Z,15.88
2022-11-14T08:49:53.640Z,17.15
2022-11-14T08:54:54.981Z,16.05
2022-11-14T08:59:56.206Z,16.95
2022-11-14T09:04:57.644Z,14.75
2022-11-14T09:09:59.006Z,16.45
2022-11-14T09:15:00.460Z,13.88
2022-11-14T09:20:01.680Z,14.55
2022-11-14T09:25:03.121Z,13.32
2022-11-14T09:30:05.455Z,13.00
2022-11-14T09:35:07.013Z,13.45
2022-11-14T09:40:11.467Z,13.20
2022-11-14T09:45:16.017Z,13.23
2022-11-14T09:50:25.901Z,12.68
2022-11-14T09:55:35.202Z,12.38
2022-11-14T10:01:12.421Z,12.02
2022-11-14T10:06:22.584Z,10.13
2022-11-14T10:11:34.660Z,10.35
2022-11-14T10:16:55.444Z,10.40
2022-11-14T10:22:05.161Z,10.35
2022-11-14T10:27:14.898Z,9.82
2022-11-14T10:32:43.843Z,8.82
2022-11-14T10:37:57.237Z,8.93
2022-11-14T10:43:07.036Z,9.27
2022-11-14T10:48:30.248Z,9.55
2022-11-14T10:53:50.368Z,9.20
2022-11-14T10:58:51.804Z,9.30
2022-11-14T11:03:53.117Z,9.20
2022-11-14T11:09:13.013Z,9.35
2022-11-14T11:14:18.834Z,9.00
2022-11-14T11:19:27.358Z,8.18
2022-11-14T11:24:34.268Z,8.25
2022-11-14T11:29:35.544Z,7.35
2022-11-14T11:34:36.790Z,6.53
2022-11-14T11:39:45.438Z,7.10
2022-11-14T11:44:50.680Z,6.78
2022-11-14T11:49:54.638Z,6.43
2022-11-14T11:55:05.156Z,6.15
2022-11-14T12:00:20.527Z,5.82
2022-11-14T12:05:40.985Z,6.25
2022-11-14T12:10:43.312Z,5.82
2022-11-14T12:15:55.225Z,5.82
2022-11-14T12:21:02.639Z,5.38
2022-11-14T12:26:28.282Z,5.28
2022-11-14T12:31:35.279Z,5.70
2022-11-14T12:36:37.553Z,4.97
2022-11-14T12:41:40.440Z,5.20
2022-11-14T12:47:07.029Z,5.20
2022-11-14T12:52:46.277Z,5.35
2022-11-14T12:58:09.772Z,4.90
2022-11-14T13:03:26.445Z,5.63
2022-11-14T13:09:16.040Z,5.68
2022-11-14T13:14:37.996Z,4.72
2022-11-14T13:20:04.806Z,4.82
2022-11-14T13:25:06.097Z,10.23
2022-11-14T13:30:08.132Z,6.40
2022-11-14T13:35:38.965Z,7.05
2022-11-14T13:41:13.903Z,6.78
2022-11-14T13:51:47.720Z,5.72
2022-11-14T13:57:00.360Z,5.05
2022-11-14T14:02:23.192Z,4.90
2022-11-14T14:07:41.238Z,5.43
2022-11-14T14:12:48.704Z,7.57
2022-11-14T14:18:02.568Z,6.35
2022-11-14T14:23:33.348Z,6.70
2022-11-14T14:29:06.264Z,4.85
2022-11-14T14:34:29.381Z,5.03
2022-11-14T14:39:30.726Z,4.20
2022-11-14T14:44:37.929Z,4.45
2022-11-14T14:49:39.328Z,4.72
2022-11-14T14:54:40.614Z,3.70
2022-11-14T14:59:42.145Z,6.80
2022-11-14T15:04:43.613Z,4.30
2022-11-14T15:09:53.617Z,4.22
2022-11-14T15:14:55.827Z,4.00
2022-11-14T15:19:57.394Z,4.07
2022-11-14T15:25:13.869Z,3.33
2022-11-14T15:30:25.322Z,3.65
2022-11-14T15:35:28.377Z,4.25
2022-11-14T15:40:34.302Z,3.30
2022-11-14T15:45:40.546Z,3.85
2022-11-14T15:50:42.156Z,4.05
2022-11-14T15:55:43.457Z,3.75
2022-11-14T16:00:47.687Z,3.00
2022-11-14T16:05:49.097Z,4.10
2022-11-14T16:10:50.356Z,5.00
2022-11-14T16:15:51.685Z,4.80
2022-11-14T16:20:58.556Z,4.53
2022-11-14T16:25:59.806Z,4.22
2022-11-14T16:31:01.103Z,4.60
2022-11-14T16:36:02.413Z,4.45
2022-11-14T16:41:08.683Z,4.57
2022-11-14T16:46:11.361Z,4.60
2022-11-14T16:51:40.931Z,3.90
2022-11-14T16:56:34.012Z,4.78
2022-11-14T17:01:35.384Z,5.28
2022-11-14T17:06:36.820Z,7.38
2022-11-14T17:11:38.111Z,7.78
2022-11-14T17:16:39.374Z,8.65
2022-11-14T17:21:40.680Z,9.90
2022-11-14T17:26:42.514Z,8.60
2022-11-14T17:31:47.070Z,7.43
2022-11-14T17:36:48.619Z,11.05
2022-11-14T17:41:49.873Z,6.97
2022-11-14T17:46:51.231Z,6.90
2022-11-14T17:51:52.493Z,7.68
2022-11-14T17:56:55.172Z,7.45
2022-11-14T18:01:59.786Z,7.78
2022-11-14T18:07:01.341Z,5.82
2022-11-14T18:12:02.744Z,5.50
2022-11-14T18:17:12.945Z,6.03
2022-11-14T18:22:14.937Z,7.13
2022-11-14T18:27:16.373Z,6.78
2022-11-14T18:32:18.165Z,7.68
2022-11-14T18:37:19.486Z,8.90
2022-11-14T18:42:20.775Z,7.10
2022-11-14T18:47:22.056Z,7.07
2022-11-14T18:52:23.384Z,6.85
2022-11-14T18:57:24.681Z,6.55
2022-11-14T19:02:26.005Z,6.22
2022-11-14T19:07:29.316Z,5.25
2022-11-14T19:12:30.650Z,5.35
2022-11-14T19:17:31.970Z,5.15
2022-11-14T19:22:33.288Z,5.45
2022-11-14T19:27:34.839Z,6.25
2022-11-14T19:32:36.227Z,5.95
2022-11-14T19:37:37.607Z,5.95
2022-11-14T19:42:38.827Z,6.50
2022-11-14T19:47:40.112Z,7.28
2022-11-14T19:52:41.381Z,6.05
2022-11-14T19:57:42.666Z,6.10
2022-11-14T20:02:47.032Z,5.82
2022-11-14T20:07:48.339Z,5.88
2022-11-14T20:12:49.715Z,6.10
2022-11-14T20:17:51.020Z,5.72
2022-11-14T20:22:52.310Z,6.05
2022-11-14T20:27:53.719Z,5.70
2022-11-14T20:32:55.248Z,6.38
2022-11-14T20:37:59.381Z,6.45
2022-11-14T20:43:04.807Z,6.32
2022-11-14T20:48:06.314Z,6.75
2022-11-14T20:53:07.624Z,7.07
2022-11-14T20:58:08.962Z,6.70
2022-11-14T21:03:10.325Z,7.90
2022-11-14T21:08:12.512Z,6.93
2022-11-14T21:13:34.668Z,7.57
2022-11-14T21:18:38.429Z,7.35
2022-11-14T21:23:39.733Z,7.23
2022-11-14T21:28:43.744Z,7.32
2022-11-14T21:33:46.194Z,7.55
2022-11-14T21:38:47.524Z,7.43
2022-11-14T21:43:53.318Z,8.77
2022-11-14T21:48:55.881Z,15.38
2022-11-14T21:53:58.456Z,7.38
2022-11-14T21:59:13.997Z,7.97
2022-11-14T22:04:15.736Z,8.63
2022-11-14T22:09:17.127Z,8.45
2022-11-14T22:14:18.476Z,7.35
2022-11-14T22:19:19.836Z,8.80
2022-11-14T22:24:22.558Z,9.27
2022-11-14T22:29:23.807Z,8.40
2022-11-14T22:34:25.092Z,8.50
2022-11-14T22:39:26.353Z,9.10
2022-11-14T22:44:27.605Z,8.52
2022-11-14T22:49:28.850Z,7.28
2022-11-14T22:54:30.109Z,7.95
2022-11-14T22:59:31.422Z,10.55
2022-11-14T23:04:32.668Z,7.70
2022-11-14T23:09:33.909Z,9.60
2022-11-14T23:14:35.211Z,8.18
2022-11-14T23:19:36.459Z,13.93
2022-11-14T23:24:37.718Z,9.18
2022-11-14T23:29:39.199Z,7.70
2022-11-14T23:34:40.423Z,7.25
2022-11-14T23:39:41.686Z,7.68
2022-11-14T23:44:42.992Z,7.07
2022-11-14T23:49:44.305Z,7.65
2022-11-14T23:54:45.646Z,7.88
2022-11-14T23:59:46.975Z,8.80
